Time;durP1;ratioP1;P1;durP2;ratioP2;P2;SDS_P1;SDS_P2;PMS_P1;PMS_P2;Temp;Humidity;BMP_temperature;BMP_pressure;BME280_temperature;BME280_humidity;BME280_pressure;Samples;Min_cycle;Max_cycle;Signal;HPM_P1;HPM_P2
2024/01/01 00:01:41;;;;;;;38.97;26.87;;;;;;;;;;5122610;28;20419;-81
2024/01/01 00:04:08;;;;;;;36.90;25.45;;;;;;;;;;5123005;28;20477;-81
2024/01/01 00:06:34;;;;;;;31.30;22.30;;;;;;;;;;5122092;28;20385;-82
2024/01/01 00:09:00;;;;;;;19.13;15.95;;;;;;;;;;5122471;28;20383;-81
2024/01/01 00:11:26;;;;;;;15.57;12.85;;;;;;;;;;5122811;28;20459;-81
2024/01/01 00:13:52;;;;;;;13.57;11.18;;;;;;;;;;5123549;28;20770;-81
2024/01/01 00:16:18;;;;;;;13.25;11.95;;;;;;;;;;5122590;28;20383;-81
2024/01/01 00:18:44;;;;;;;12.83;11.50;;;;;;;;;;5121694;28;20384;-81
2024/01/01 00:21:10;;;;;;;11.45;10.15;;;;;;;;;;5120584;28;20380;-81
2024/01/01 00:23:36;;;;;;;11.77;10.57;;;;;;;;;;5121737;28;20437;-81
2024/01/01 00:26:02;;;;;;;12.52;11.23;;;;;;;;;;5122205;28;20893;-82
2024/01/01 00:28:28;;;;;;;10.70;9.40;;;;;;;;;;5121424;28;20443;-82
2024/01/01 00:30:54;;;;;;;10.75;9.60;;;;;;;;;;5116467;28;20387;-81
2024/01/01 00:33:20;;;;;;;10.00;9.00;;;;;;;;;;5082884;28;20370;-81
2024/01/01 00:35:47;;;;;;;10.90;9.52;;;;;;;;;;5080745;28;20481;-80
2024/01/01 00:38:13;;;;;;;10.75;9.75;;;;;;;;;;5096206;28;20405;-81
2024/01/01 00:40:39;;;;;;;11.63;9.90;;;;;;;;;;5095807;28;20397;-83
2024/01/01 00:43:05;;;;;;;13.30;11.38;;;;;;;;;;5102138;28;20479;-81
2024/01/01 00:45:31;;;;;;;11.25;10.15;;;;;;;;;;5118564;28;20902;-81
2024/01/01 00:47:57;;;;;;;10.48;9.45;;;;;;;;;;5119444;28;20430;-81
2024/01/01 00:50:23;;;;;;;9.75;8.75;;;;;;;;;;5120967;28;20376;-82
2024/01/01 00:52:49;;;;;;;9.80;8.85;;;;;;;;;;5120359;28;20380;-81
2024/01/01 00:55:15;;;;;;;9.90;8.90;;;;;;;;;;5120932;28;20379;-82
2024/01/01 00:57:41;;;;;;;9.37;8.47;;;;;;;;;;5104085;28;20746;-82
2024/01/01 01:00:07;;;;;;;9.80;8.80;;;;;;;;;;5124398;28;20730;-82
2024/01/01 01:02:33;;;;;;;10.18;9.05;;;;;;;;;;5124674;28;20857;-82
2024/01/01 01:04:59;;;;;;;10.45;8.95;;;;;;;;;;5124887;28;20772;-82
2024/01/01 01:07:25;;;;;;;9.25;8.35;;;;;;;;;;5107100;28;20906;-82
2024/01/01 01:09:51;;;;;;;8.80;7.90;;;;;;;;;;5125469;28;20379;-83
2024/01/01 01:12:18;;;;;;;9.15;8.25;;;;;;;;;;5125084;28;20398;-82
2024/01/01 01:14:44;;;;;;;8.90;7.97;;;;;;;;;;5125788;28;20383;-82
2024/01/01 01:17:10;;;;;;;9.32;8.43;;;;;;;;;;5123626;28;20423;-83
2024/01/01 01:19:36;;;;;;;9.82;8.70;;;;;;;;;;5122124;28;20384;-81
2024/01/01 01:22:02;;;;;;;9.68;8.40;;;;;;;;;;5123820;28;20438;-81
2024/01/01 01:24:28;;;;;;;10.25;9.15;;;;;;;;;;5123312;28;20411;-82
2024/01/01 01:26:54;;;;;;;9.90;8.90;;;;;;;;;;5125444;28;20906;-81
2024/01/01 01:29:20;;;;;;;9.57;8.53;;;;;;;;;;5105975;28;20398;-82
2024/01/01 01:31:46;;;;;;;10.18;9.10;;;;;;;;;;5124036;28;20388;-82
2024/01/01 01:34:13;;;;;;;10.00;9.00;;;;;;;;;;5103610;28;20391;-81
2024/01/01 01:36:39;;;;;;;10.85;9.38;;;;;;;;;;5120801;28;20541;-82
2024/01/01 01:39:05;;;;;;;10.30;9.10;;;;;;;;;;5122301;28;20749;-82
2024/01/01 01:41:31;;;;;;;12.73;10.00;;;;;;;;;;5121919;28;20388;-81
2024/01/01 01:43:57;;;;;;;10.73;9.68;;;;;;;;;;5120807;28;20396;-82
2024/01/01 01:46:24;;;;;;;10.35;9.07;;;;;;;;;;5121944;28;20838;-81
2024/01/01 01:48:51;;;;;;;9.77;8.77;;;;;;;;;;5102411;28;20465;-82
2024/01/01 01:51:17;;;;;;;9.80;8.77;;;;;;;;;;5120964;28;20986;-81
2024/01/01 01:53:43;;;;;;;9.23;8.10;;;;;;;;;;5104034;28;20392;-82
2024/01/01 01:56:09;;;;;;;10.50;8.32;;;;;;;;;;5122160;28;20830;-81
2024/01/01 01:58:35;;;;;;;8.10;7.30;;;;;;;;;;5102621;28;20384;-81
2024/01/01 02:01:02;;;;;;;8.35;7.30;;;;;;;;;;5120773;28;20389;-81
2024/01/01 02:03:28;;;;;;;8.88;7.38;;;;;;;;;;5121110;28;20502;-80
2024/01/01 02:05:55;;;;;;;8.65;7.75;;;;;;;;;;5119741;28;20502;-81
2024/01/01 02:08:21;;;;;;;8.13;7.32;;;;;;;;;;5118933;28;20383;-81
2024/01/01 02:10:48;;;;;;;7.47;6.78;;;;;;;;;;5118437;28;20372;-81
2024/01/01 02:13:43;;;;;;;9.15;7.65;;;;;;;;;;5100045;28;20384;-81
2024/01/01 02:16:09;;;;;;;8.55;7.68;;;;;;;;;;5097240;28;20391;-80
2024/01/01 02:18:35;;;;;;;8.50;7.60;;;;;;;;;;5117498;28;20400;-80
2024/01/01 02:21:01;;;;;;;8.98;7.25;;;;;;;;;;5118283;28;20383;-81
2024/01/01 02:23:28;;;;;;;8.60;7.67;;;;;;;;;;5117949;28;20404;-80
2024/01/01 02:25:54;;;;;;;8.00;7.13;;;;;;;;;;5118048;28;20383;-81
2024/01/01 02:28:20;;;;;;;8.35;7.13;;;;;;;;;;5116088;28;20368;-81
2024/01/01 02:30:46;;;;;;;7.95;6.97;;;;;;;;;;5101028;28;20401;-81
2024/01/01 02:33:14;;;;;;;7.75;6.95;;;;;;;;;;5098431;28;20855;-81
2024/01/01 02:35:40;;;;;;;8.05;7.20;;;;;;;;;;5099576;28;20423;-80
2024/01/01 02:38:07;;;;;;;9.50;7.05;;;;;;;;;;5098585;28;20926;-81
2024/01/01 02:40:34;;;;;;;8.60;7.23;;;;;;;;;;5080184;28;20376;-81
2024/01/01 02:43:00;;;;;;;7.13;6.43;;;;;;;;;;5080419;28;20431;-81
2024/01/01 02:45:31;;;;;;;7.67;6.37;;;;;;;;;;5115142;28;20459;-80
2024/01/01 02:47:58;;;;;;;7.13;6.30;;;;;;;;;;5119065;28;20424;-83
2024/01/01 02:50:25;;;;;;;7.07;6.30;;;;;;;;;;5120099;28;20872;-80
2024/01/01 02:52:51;;;;;;;7.70;6.60;;;;;;;;;;5120989;28;20376;-81
2024/01/01 02:55:18;;;;;;;7.32;6.50;;;;;;;;;;5116741;28;20388;-80
2024/01/01 02:57:44;;;;;;;7.18;6.38;;;;;;;;;;5112293;28;20378;-80
2024/01/01 03:00:10;;;;;;;8.50;6.80;;;;;;;;;;5097813;28;20378;-80
2024/01/01 03:02:40;;;;;;;8.40;7.30;;;;;;;;;;5097182;28;20776;-80
2024/01/01 03:05:06;;;;;;;7.40;6.70;;;;;;;;;;5097275;28;20466;-81
2024/01/01 03:07:33;;;;;;;8.98;7.75;;;;;;;;;;5096726;28;20836;-81
2024/01/01 03:09:59;;;;;;;10.05;7.53;;;;;;;;;;5097078;28;20378;-80
2024/01/01 03:12:25;;;;;;;8.30;7.15;;;;;;;;;;5097161;28;20385;-81
2024/01/01 03:14:51;;;;;;;8.20;7.32;;;;;;;;;;5096806;28;20886;-81
2024/01/01 03:17:17;;;;;;;9.80;7.17;;;;;;;;;;5096789;28;20397;-81
2024/01/01 03:19:43;;;;;;;8.65;7.57;;;;;;;;;;5081116;28;20389;-81
2024/01/01 03:22:09;;;;;;;9.50;7.77;;;;;;;;;;5080264;28;20768;-81
2024/01/01 03:24:35;;;;;;;9.63;8.40;;;;;;;;;;5098515;28;20406;-81
2024/01/01 03:27:01;;;;;;;12.80;8.50;;;;;;;;;;5096976;28;20406;-80
2024/01/01 03:29:27;;;;;;;10.00;8.50;;;;;;;;;;5097669;28;20396;-81
2024/01/01 03:31:53;;;;;;;10.45;8.60;;;;;;;;;;5094643;28;20370;-81
2024/01/01 03:34:19;;;;;;;12.30;8.75;;;;;;;;;;5093984;28;20859;-82
2024/01/01 03:36:45;;;;;;;11.18;8.15;;;;;;;;;;5096021;28;20907;-81
2024/01/01 03:39:11;;;;;;;9.75;7.22;;;;;;;;;;5096279;28;20396;-81
2024/01/01 03:41:38;;;;;;;9.70;7.97;;;;;;;;;;5097447;28;20453;-82
2024/01/01 03:44:04;;;;;;;10.18;7.72;;;;;;;;;;5100010;28;20398;-81
2024/01/01 03:46:30;;;;;;;9.85;7.75;;;;;;;;;;5099119;28;20428;-80
2024/01/01 03:48:56;;;;;;;10.10;8.15;;;;;;;;;;5100724;28;20375;-80
2024/01/01 03:51:22;;;;;;;10.77;8.18;;;;;;;;;;5100399;28;20429;-82
2024/01/01 03:53:48;;;;;;;11.23;8.15;;;;;;;;;;5100119;28;20382;-81
2024/01/01 03:56:14;;;;;;;11.10;8.32;;;;;;;;;;5099952;28;20393;-81
2024/01/01 03:58:40;;;;;;;10.33;8.50;;;;;;;;;;5099243;28;20459;-81
2024/01/01 04:01:12;;;;;;;12.15;8.98;;;;;;;;;;5101750;28;20390;-80
2024/01/01 04:03:38;;;;;;;11.50;9.00;;;;;;;;;;5099571;28;20483;-81
2024/01/01 04:06:04;;;;;;;12.37;9.10;;;;;;;;;;5100361;28;20396;-83
2024/01/01 04:08:30;;;;;;;12.38;9.43;;;;;;;;;;5103300;28;20405;-81
2024/01/01 04:10:56;;;;;;;10.87;8.67;;;;;;;;;;5102683;28;20452;-81
2024/01/01 04:13:22;;;;;;;12.38;9.13;;;;;;;;;;5104212;28;20401;-81
2024/01/01 04:15:48;;;;;;;12.77;8.75;;;;;;;;;;5120327;28;20381;-81
2024/01/01 04:18:14;;;;;;;13.73;9.20;;;;;;;;;;5121006;28;20373;-82
2024/01/01 04:20:40;;;;;;;11.25;8.98;;;;;;;;;;5122395;28;20881;-80
2024/01/01 04:23:06;;;;;;;11.52;8.40;;;;;;;;;;5121618;28;20473;-82
2024/01/01 04:25:32;;;;;;;10.70;8.23;;;;;;;;;;5121758;28;20433;-81
2024/01/01 04:27:58;;;;;;;8.93;7.50;;;;;;;;;;5121166;28;20719;-81
2024/01/01 04:30:24;;;;;;;10.02;6.90;;;;;;;;;;5120633;28;20369;-80
2024/01/01 04:32:50;;;;;;;7.15;5.82;;;;;;;;;;5119934;28;20372;-82
2024/01/01 04:35:16;;;;;;;6.90;5.18;;;;;;;;;;5105658;28;20370;-82
2024/01/01 04:37:43;;;;;;;5.78;4.55;;;;;;;;;;5100935;28;20382;-82
2024/01/01 04:40:09;;;;;;;4.50;3.53;;;;;;;;;;5100635;28;20373;-81
2024/01/01 04:42:35;;;;;;;3.75;3.10;;;;;;;;;;5120167;28;20526;-81
2024/01/01 04:45:01;;;;;;;3.13;2.83;;;;;;;;;;5121165;28;20458;-81
2024/01/01 04:47:27;;;;;;;2.75;2.28;;;;;;;;;;5120930;28;20401;-80
2024/01/01 04:49:52;;;;;;;2.55;2.35;;;;;;;;;;5101843;28;20377;-81
2024/01/01 04:52:18;;;;;;;2.50;2.30;;;;;;;;;;5120985;28;20383;-80
2024/01/01 04:54:44;;;;;;;3.40;2.50;;;;;;;;;;5120972;28;20423;-81
2024/01/01 04:57:10;;;;;;;2.58;2.38;;;;;;;;;;5104554;28;20377;-82
2024/01/01 04:59:37;;;;;;;2.60;2.40;;;;;;;;;;5120820;28;20455;-82
2024/01/01 05:02:03;;;;;;;3.40;2.70;;;;;;;;;;5120618;28;20455;-81
2024/01/01 05:04:28;;;;;;;4.22;2.80;;;;;;;;;;5104715;28;20437;-81
2024/01/01 05:06:54;;;;;;;3.85;2.55;;;;;;;;;;5086811;28;20385;-81
2024/01/01 05:09:20;;;;;;;3.30;2.80;;;;;;;;;;5118127;28;20384;-80
2024/01/01 05:11:46;;;;;;;3.95;2.80;;;;;;;;;;5120412;28;20379;-80
2024/01/01 05:14:12;;;;;;;3.47;2.85;;;;;;;;;;5120182;28;20388;-82
2024/01/01 05:16:39;;;;;;;4.15;2.75;;;;;;;;;;5121383;28;20731;-82
2024/01/01 05:19:05;;;;;;;4.07;2.97;;;;;;;;;;5120193;28;20379;-82
2024/01/01 05:21:31;;;;;;;2.83;2.60;;;;;;;;;;5100876;28;20392;-81
2024/01/01 05:23:57;;;;;;;3.58;2.72;;;;;;;;;;5121083;28;20396;-81
2024/01/01 05:26:23;;;;;;;3.33;2.30;;;;;;;;;;5120415;28;20432;-81
2024/01/01 05:28:49;;;;;;;3.00;2.67;;;;;;;;;;5118471;28;20463;-81
2024/01/01 05:31:19;;;;;;;4.72;2.95;;;;;;;;;;5118657;28;20384;-80
2024/01/01 05:33:45;;;;;;;3.70;2.50;;;;;;;;;;5119535;28;20412;-81
2024/01/01 05:36:13;;;;;;;4.13;2.55;;;;;;;;;;5102088;28;20387;-82
2024/01/01 05:38:39;;;;;;;3.70;2.65;;;;;;;;;;5101571;28;20970;-80
2024/01/01 05:41:05;;;;;;;3.45;2.72;;;;;;;;;;5119935;28;20841;-82
2024/01/01 05:43:33;;;;;;;4.30;2.70;;;;;;;;;;5119944;28;20419;-80
2024/01/01 05:45:59;;;;;;;3.53;2.40;;;;;;;;;;5117005;28;20376;-81
2024/01/01 05:48:25;;;;;;;3.92;2.72;;;;;;;;;;5115413;28;20897;-80
2024/01/01 05:50:51;;;;;;;3.63;2.47;;;;;;;;;;5115317;28;20442;-80
2024/01/01 05:53:17;;;;;;;3.22;2.60;;;;;;;;;;5115809;28;20384;-81
2024/01/01 05:55:43;;;;;;;4.10;2.40;;;;;;;;;;5116608;28;20388;-81
2024/01/01 05:58:09;;;;;;;3.40;2.40;;;;;;;;;;5117956;28;20434;-80
2024/01/01 06:00:37;;;;;;;3.97;2.33;;;;;;;;;;5099324;28;20388;-80
2024/01/01 06:03:06;;;;;;;3.30;2.22;;;;;;;;;;5117823;28;20479;-80
2024/01/01 06:05:35;;;;;;;2.90;2.10;;;;;;;;;;5099464;28;20424;-80
2024/01/01 06:08:05;;;;;;;3.97;2.20;;;;;;;;;;5118893;28;20791;-81
2024/01/01 06:10:31;;;;;;;3.38;2.17;;;;;;;;;;5117091;28;20389;-81
2024/01/01 06:12:57;;;;;;;4.15;2.55;;;;;;;;;;5117619;28;20364;-82
2024/01/01 06:15:29;;;;;;;3.03;2.08;;;;;;;;;;5118858;28;20400;-81
2024/01/01 06:17:55;;;;;;;2.35;2.00;;;;;;;;;;5117314;28;20371;-81
2024/01/01 06:20:21;;;;;;;2.83;2.05;;;;;;;;;;5117274;28;20741;-80
2024/01/01 06:22:47;;;;;;;4.20;2.27;;;;;;;;;;5114368;28;20396;-81
2024/01/01 06:25:15;;;;;;;2.40;1.90;;;;;;;;;;5113526;28;20433;-80
2024/01/01 06:27:41;;;;;;;3.03;2.00;;;;;;;;;;5114146;28;20434;-80
2024/01/01 06:30:07;;;;;;;3.40;1.88;;;;;;;;;;5114079;28;20776;-82
2024/01/01 06:32:33;;;;;;;3.35;1.98;;;;;;;;;;5115159;28;20372;-80
2024/01/01 06:34:59;;;;;;;3.92;1.73;;;;;;;;;;5115039;28;20380;-80
2024/01/01 06:37:25;;;;;;;2.25;1.80;;;;;;;;;;5109645;28;20447;-81
2024/01/01 06:39:51;;;;;;;4.03;2.20;;;;;;;;;;5114970;28;20380;-80
2024/01/01 06:42:17;;;;;;;2.85;2.03;;;;;;;;;;5115671;28;20391;-80
2024/01/01 06:44:43;;;;;;;2.50;1.60;;;;;;;;;;5115089;28;20865;-80
2024/01/01 06:47:09;;;;;;;3.78;2.05;;;;;;;;;;5116951;28;20734;-82
2024/01/01 06:49:36;;;;;;;4.10;1.70;;;;;;;;;;5116468;28;20379;-81
2024/01/01 06:52:03;;;;;;;4.88;1.70;;;;;;;;;;5120158;28;20380;-82
2024/01/01 06:54:29;;;;;;;5.28;2.03;;;;;;;;;;5122985;28;20850;-82
2024/01/01 06:56:55;;;;;;;3.35;1.70;;;;;;;;;;5123512;28;20380;-80
2024/01/01 06:59:26;;;;;;;3.10;1.88;;;;;;;;;;5124520;28;20467;-82
2024/01/01 07:01:52;;;;;;;3.72;1.77;;;;;;;;;;5126888;28;20473;-80
2024/01/01 07:04:18;;;;;;;3.28;1.60;;;;;;;;;;5126476;28;20376;-82
2024/01/01 07:06:44;;;;;;;2.93;1.70;;;;;;;;;;5125856;28;20451;-83
2024/01/01 07:09:10;;;;;;;2.60;1.60;;;;;;;;;;5122302;28;20380;-82
2024/01/01 07:11:36;;;;;;;3.10;1.70;;;;;;;;;;5122377;28;20407;-81
2024/01/01 07:14:03;;;;;;;2.20;1.80;;;;;;;;;;5120854;28;20388;-82
2024/01/01 07:16:29;;;;;;;2.88;1.45;;;;;;;;;;5121460;28;20815;-81
2024/01/01 07:18:56;;;;;;;2.58;1.70;;;;;;;;;;5124796;28;20380;-81
2024/01/01 07:21:22;;;;;;;4.80;2.15;;;;;;;;;;5124326;28;20761;-82
2024/01/01 07:23:48;;;;;;;4.20;2.45;;;;;;;;;;5125171;28;20403;-81
2024/01/01 07:26:14;;;;;;;3.43;1.70;;;;;;;;;;5125976;28;20409;-82
2024/01/01 07:28:42;;;;;;;3.13;1.50;;;;;;;;;;5106186;28;20395;-82
2024/01/01 07:31:08;;;;;;;2.58;1.75;;;;;;;;;;5126553;28;20726;-81
2024/01/01 07:33:34;;;;;;;2.97;1.60;;;;;;;;;;5125129;28;20430;-81
2024/01/01 07:36:00;;;;;;;4.30;1.80;;;;;;;;;;5124679;28;20380;-81
2024/01/01 07:38:26;;;;;;;3.17;1.60;;;;;;;;;;5124048;28;20383;-82
2024/01/01 07:40:52;;;;;;;4.27;1.70;;;;;;;;;;5124129;28;20369;-81
2024/01/01 07:43:18;;;;;;;3.22;1.40;;;;;;;;;;5124349;28;20396;-82
2024/01/01 07:45:44;;;;;;;2.72;1.50;;;;;;;;;;5125211;28;20526;-82
2024/01/01 07:48:10;;;;;;;2.08;1.60;;;;;;;;;;5124103;28;20834;-81
2024/01/01 07:50:36;;;;;;;2.50;2.10;;;;;;;;;;5123294;28;20437;-80
2024/01/01 07:53:03;;;;;;;2.10;1.50;;;;;;;;;;5123746;28;20432;-81
2024/01/01 07:55:29;;;;;;;2.40;1.30;;;;;;;;;;5124879;28;20375;-81
2024/01/01 07:57:55;;;;;;;4.30;1.60;;;;;;;;;;5124330;28;20365;-81
2024/01/01 08:00:23;;;;;;;2.53;1.60;;;;;;;;;;5124884;28;20849;-82
2024/01/01 08:02:49;;;;;;;2.72;1.60;;;;;;;;;;5123874;28;20420;-82
2024/01/01 08:05:15;;;;;;;2.15;1.40;;;;;;;;;;5124497;28;20748;-82
2024/01/01 08:07:47;;;;;;;3.30;1.80;;;;;;;;;;5105502;28;20387;-81
2024/01/01 08:10:13;;;;;;;4.07;1.65;;;;;;;;;;5124354;28;20420;-82
2024/01/01 08:12:39;;;;;;;2.83;1.60;;;;;;;;;;5123817;28;20377;-80
2024/01/01 08:15:05;;;;;;;2.05;1.40;;;;;;;;;;5106334;28;20406;-81
2024/01/01 08:17:31;;;;;;;3.42;1.60;;;;;;;;;;5126969;28;20776;-83
2024/01/01 08:19:57;;;;;;;3.65;1.60;;;;;;;;;;5126434;28;20390;-82
2024/01/01 08:22:23;;;;;;;3.30;1.70;;;;;;;;;;5124689;28;20408;-81
2024/01/01 08:24:49;;;;;;;2.97;1.87;;;;;;;;;;5124942;28;20539;-81
2024/01/01 08:27:15;;;;;;;2.83;1.80;;;;;;;;;;5125185;28;20384;-82
2024/01/01 08:29:42;;;;;;;2.53;1.40;;;;;;;;;;5123376;28;20373;-81
2024/01/01 08:32:08;;;;;;;5.07;1.55;;;;;;;;;;5106114;28;20407;-82
2024/01/01 08:34:34;;;;;;;2.20;1.30;;;;;;;;;;5123562;28;20391;-82
2024/01/01 08:37:01;;;;;;;1.95;1.30;;;;;;;;;;5111506;28;20385;-81
2024/01/01 08:39:27;;;;;;;2.67;1.20;;;;;;;;;;5103581;28;20382;-80
2024/01/01 08:41:53;;;;;;;1.57;0.90;;;;;;;;;;5104017;28;20411;-82
2024/01/01 08:44:19;;;;;;;1.42;0.80;;;;;;;;;;5103873;28;20401;-82
2024/01/01 08:46:45;;;;;;;2.50;2.10;;;;;;;;;;5103328;28;20402;-80
2024/01/01 08:49:11;;;;;;;1.90;0.90;;;;;;;;;;5103292;28;20794;-81
2024/01/01 08:51:37;;;;;;;3.55;1.50;;;;;;;;;;5103286;28;20370;-81
2024/01/01 08:54:07;;;;;;;1.23;0.80;;;;;;;;;;5102921;28;20926;-81
2024/01/01 08:56:33;;;;;;;1.85;1.10;;;;;;;;;;5101961;28;20547;-82
2024/01/01 08:58:59;;;;;;;3.28;1.45;;;;;;;;;;5101078;28;20756;-81
2024/01/01 09:01:25;;;;;;;2.17;1.55;;;;;;;;;;5083389;28;20411;-80
2024/01/01 09:03:51;;;;;;;2.38;1.50;;;;;;;;;;5100964;28;20504;-81
2024/01/01 09:06:17;;;;;;;1.52;1.40;;;;;;;;;;5101273;28;20380;-80
2024/01/01 09:08:43;;;;;;;3.65;1.70;;;;;;;;;;5102735;28;20374;-80
2024/01/01 09:11:09;;;;;;;2.20;1.40;;;;;;;;;;5102174;28;20797;-81
2024/01/01 09:13:35;;;;;;;3.15;1.45;;;;;;;;;;5098664;28;20439;-81
2024/01/01 09:16:02;;;;;;;1.42;1.25;;;;;;;;;;5095711;28;20446;-82
2024/01/01 09:18:28;;;;;;;2.35;1.10;;;;;;;;;;5096039;28;20417;-81
2024/01/01 09:20:54;;;;;;;2.78;1.23;;;;;;;;;;5078953;28;20394;-82
2024/01/01 09:23:20;;;;;;;2.20;1.38;;;;;;;;;;5097373;28;20452;-82
2024/01/01 09:25:46;;;;;;;3.20;1.30;;;;;;;;;;5098382;28;20420;-81
2024/01/01 09:28:12;;;;;;;2.30;1.00;;;;;;;;;;5099294;28;20388;-81
2024/01/01 09:30:38;;;;;;;3.40;1.33;;;;;;;;;;5098927;28;20546;-80
2024/01/01 09:33:04;;;;;;;2.60;1.10;;;;;;;;;;5098440;28;20413;-82
2024/01/01 09:35:31;;;;;;;2.20;1.30;;;;;;;;;;5097640;28;20378;-80
2024/01/01 09:37:58;;;;;;;2.63;1.40;;;;;;;;;;5079103;28;20797;-80
2024/01/01 09:40:24;;;;;;;4.17;1.50;;;;;;;;;;5098586;28;20382;-81
2024/01/01 09:42:50;;;;;;;2.97;1.70;;;;;;;;;;5098333;28;20523;-81
2024/01/01 09:45:16;;;;;;;3.47;1.80;;;;;;;;;;5097583;28;20389;-80
2024/01/01 09:47:43;;;;;;;4.38;1.90;;;;;;;;;;5095771;28;20389;-80
2024/01/01 09:50:09;;;;;;;3.20;1.67;;;;;;;;;;5095620;28;20393;-80
2024/01/01 09:52:36;;;;;;;2.20;1.70;;;;;;;;;;5094796;28;20939;-80
2024/01/01 09:55:02;;;;;;;3.50;1.90;;;;;;;;;;5094015;28;20390;-80
2024/01/01 09:57:28;;;;;;;3.90;2.20;;;;;;;;;;5094782;28;20381;-80
2024/01/01 09:59:54;;;;;;;3.15;2.30;;;;;;;;;;5094214;28;20370;-80
2024/01/01 10:02:24;;;;;;;3.88;2.30;;;;;;;;;;5097427;28;20378;-81
2024/01/01 10:04:50;;;;;;;5.20;2.25;;;;;;;;;;5095274;28;21068;-80
2024/01/01 10:07:25;;;;;;;2.80;2.00;;;;;;;;;;5094584;28;20393;-80
2024/01/01 10:09:51;;;;;;;3.72;2.67;;;;;;;;;;5076703;28;20910;-80
2024/01/01 10:12:21;;;;;;;3.15;1.90;;;;;;;;;;5095643;28;20381;-80
2024/01/01 10:14:48;;;;;;;5.40;2.45;;;;;;;;;;5076943;28;20382;-80
2024/01/01 10:17:15;;;;;;;3.40;2.03;;;;;;;;;;5097985;28;20398;-80
2024/01/01 10:19:50;;;;;;;3.55;1.85;;;;;;;;;;5098481;28;20374;-80
2024/01/01 10:22:18;;;;;;;3.58;1.90;;;;;;;;;;5099761;28;20434;-81
2024/01/01 10:24:44;;;;;;;3.23;1.73;;;;;;;;;;5099587;28;20572;-82
2024/01/01 10:27:10;;;;;;;6.35;1.42;;;;;;;;;;5099312;28;20909;-80
2024/01/01 10:29:37;;;;;;;3.58;1.20;;;;;;;;;;5115374;28;20376;-82
2024/01/01 10:32:04;;;;;;;3.28;1.30;;;;;;;;;;5119656;28;20391;-80
2024/01/01 10:34:32;;;;;;;5.05;1.75;;;;;;;;;;5101712;28;20380;-83
2024/01/01 10:36:59;;;;;;;5.97;1.73;;;;;;;;;;5122157;28;20464;-81
2024/01/01 10:39:25;;;;;;;3.47;1.30;;;;;;;;;;5103226;28;20427;-83
2024/01/01 10:41:51;;;;;;;2.75;1.42;;;;;;;;;;5100441;28;20396;-81
2024/01/01 10:44:17;;;;;;;2.75;1.15;;;;;;;;;;5101625;28;20397;-81
2024/01/01 10:46:45;;;;;;;3.53;1.50;;;;;;;;;;5100239;28;20366;-81
2024/01/01 10:49:15;;;;;;;2.92;1.40;;;;;;;;;;5098827;28;20377;-81
2024/01/01 10:52:03;;;;;;;3.22;1.42;;;;;;;;;;5099107;28;20435;-80
2024/01/01 10:54:35;;;;;;;5.57;2.00;;;;;;;;;;5101867;28;20382;-81
2024/01/01 10:57:20;;;;;;;5.07;1.77;;;;;;;;;;5101278;28;20390;-82
2024/01/01 10:59:46;;;;;;;3.15;1.48;;;;;;;;;;5103394;28;20427;-81
2024/01/01 11:02:12;;;;;;;3.60;1.80;;;;;;;;;;5084517;28;20382;-80
2024/01/01 11:04:38;;;;;;;4.47;1.83;;;;;;;;;;5102583;28;20936;-81
2024/01/01 11:07:04;;;;;;;2.22;1.70;;;;;;;;;;5103761;28;20404;-81
2024/01/01 11:09:31;;;;;;;3.25;1.60;;;;;;;;;;5102847;28;20366;-81
2024/01/01 11:12:00;;;;;;;3.53;1.45;;;;;;;;;;5101573;28;20374;-81
2024/01/01 11:14:38;;;;;;;4.55;1.50;;;;;;;;;;5101840;28;20820;-81
2024/01/01 11:17:06;;;;;;;4.75;1.40;;;;;;;;;;5101508;28;20405;-82
2024/01/01 11:19:42;;;;;;;3.17;1.42;;;;;;;;;;5102486;28;20381;-81
2024/01/01 11:22:20;;;;;;;2.70;1.40;;;;;;;;;;5100836;28;20759;-81
2024/01/01 11:24:47;;;;;;;3.35;1.50;;;;;;;;;;5101060;28;20405;-82
2024/01/01 11:27:28;;;;;;;4.28;1.45;;;;;;;;;;5105911;28;20442;-82
2024/01/01 11:29:59;;;;;;;3.30;1.30;;;;;;;;;;5106882;28;20398;-82
2024/01/01 11:32:25;;;;;;;6.03;1.40;;;;;;;;;;5106657;28;20370;-83
2024/01/01 11:35:08;;;;;;;3.90;1.33;;;;;;;;;;5106733;28;20396;-82
2024/01/01 11:37:35;;;;;;;3.95;1.20;;;;;;;;;;5087421;28;20390;-81
2024/01/01 11:40:02;;;;;;;3.67;1.63;;;;;;;;;;5105496;28;20392;-81
2024/01/01 11:42:28;;;;;;;3.92;1.40;;;;;;;;;;5106301;28;20408;-80
2024/01/01 11:45:09;;;;;;;3.35;1.20;;;;;;;;;;5106553;28;20879;-81
2024/01/01 11:47:36;;;;;;;5.57;1.40;;;;;;;;;;5105814;28;20378;-81
2024/01/01 11:50:02;;;;;;;5.32;1.42;;;;;;;;;;5105076;28;20374;-81
2024/01/01 11:52:28;;;;;;;3.63;1.13;;;;;;;;;;5105277;28;20508;-80
2024/01/01 11:54:54;;;;;;;4.30;1.27;;;;;;;;;;5104212;28;20386;-81
2024/01/01 11:57:20;;;;;;;2.73;1.00;;;;;;;;;;5105076;28;20385;-81
2024/01/01 11:59:48;;;;;;;3.40;1.10;;;;;;;;;;5105177;28;20390;-80
2024/01/01 12:02:14;;;;;;;4.60;1.10;;;;;;;;;;5104545;28;20381;-83
2024/01/01 12:04:41;;;;;;;2.20;1.00;;;;;;;;;;5104515;28;20425;-81
2024/01/01 12:07:07;;;;;;;3.00;1.00;;;;;;;;;;5102815;28;20367;-82
2024/01/01 12:09:33;;;;;;;4.00;1.10;;;;;;;;;;5099528;28;20372;-82
2024/01/01 12:12:05;;;;;;;2.83;1.03;;;;;;;;;;5098249;28;20370;-83
2024/01/01 12:14:31;;;;;;;2.95;1.00;;;;;;;;;;5098523;28;20389;-83
2024/01/01 12:16:57;;;;;;;4.32;1.20;;;;;;;;;;5100204;28;20382;-83
2024/01/01 12:19:24;;;;;;;2.75;1.20;;;;;;;;;;5099894;28;20374;-82
2024/01/01 12:21:52;;;;;;;4.57;1.50;;;;;;;;;;5082959;28;20410;-83
2024/01/01 12:24:19;;;;;;;5.22;1.25;;;;;;;;;;5121281;28;20488;-83
2024/01/01 12:26:48;;;;;;;3.38;1.27;;;;;;;;;;5122714;28;20368;-83
2024/01/01 12:29:14;;;;;;;4.78;1.35;;;;;;;;;;5105928;28;20395;-81
2024/01/01 12:31:41;;;;;;;4.10;1.42;;;;;;;;;;5121109;28;20421;-82
2024/01/01 12:34:08;;;;;;;4.60;1.60;;;;;;;;;;5123131;28;20384;-82
2024/01/01 12:36:35;;;;;;;4.45;1.20;;;;;;;;;;5123550;28;20930;-82
2024/01/01 12:39:02;;;;;;;5.57;1.45;;;;;;;;;;5125772;28;20884;-82
2024/01/01 12:41:28;;;;;;;3.05;1.45;;;;;;;;;;5125086;28;20875;-83
2024/01/01 12:43:55;;;;;;;3.22;1.38;;;;;;;;;;5116261;28;20405;-82
2024/01/01 12:46:25;;;;;;;4.25;1.30;;;;;;;;;;5100426;28;20482;-81
2024/01/01 12:48:50;;;;;;;4.38;1.40;;;;;;;;;;5100012;28;20366;-81
2024/01/01 12:51:26;;;;;;;5.00;1.23;;;;;;;;;;5100110;28;20789;-82
2024/01/01 12:53:53;;;;;;;2.60;1.08;;;;;;;;;;5101127;28;20378;-82
2024/01/01 12:56:22;;;;;;;5.18;1.23;;;;;;;;;;5101068;28;20386;-82
2024/01/01 12:58:49;;;;;;;4.00;1.40;;;;;;;;;;5101450;28;20382;-83
2024/01/01 13:01:15;;;;;;;5.70;1.30;;;;;;;;;;5101971;28;20463;-81
2024/01/01 13:03:43;;;;;;;4.35;1.33;;;;;;;;;;5101250;28;20438;-82
2024/01/01 13:06:10;;;;;;;3.72;1.23;;;;;;;;;;5081529;28;20386;-82
2024/01/01 13:08:37;;;;;;;4.13;1.50;;;;;;;;;;5100213;28;20374;-82
2024/01/01 13:11:05;;;;;;;4.60;1.65;;;;;;;;;;5101476;28;20919;-83
2024/01/01 13:13:33;;;;;;;6.32;1.75;;;;;;;;;;5100068;28;20417;-83
2024/01/01 13:15:59;;;;;;;5.03;1.50;;;;;;;;;;5102595;28;20469;-83
2024/01/01 13:18:25;;;;;;;5.90;1.20;;;;;;;;;;5101019;28;20454;-81
2024/01/01 13:20:50;;;;;;;3.65;1.10;;;;;;;;;;5101837;28;20393;-83
2024/01/01 13:23:17;;;;;;;3.97;1.40;;;;;;;;;;5102992;28;20790;-81
2024/01/01 13:25:44;;;;;;;4.53;1.50;;;;;;;;;;5098227;28;20377;-82
2024/01/01 13:28:10;;;;;;;5.13;1.20;;;;;;;;;;5079435;28;20436;-82
2024/01/01 13:30:37;;;;;;;4.55;1.40;;;;;;;;;;5098277;28;20406;-82
2024/01/01 13:33:04;;;;;;;4.88;1.40;;;;;;;;;;5079324;28;20382;-82
2024/01/01 13:35:30;;;;;;;4.88;1.27;;;;;;;;;;5098289;28;20378;-82
2024/01/01 13:37:56;;;;;;;6.63;1.50;;;;;;;;;;5081289;28;20385;-82
2024/01/01 13:40:22;;;;;;;4.88;1.40;;;;;;;;;;5098562;28;20387;-82
2024/01/01 13:42:48;;;;;;;5.75;1.30;;;;;;;;;;5099414;28;20776;-83
2024/01/01 13:45:14;;;;;;;5.03;1.35;;;;;;;;;;5097919;28;20498;-83
2024/01/01 13:47:40;;;;;;;4.90;1.08;;;;;;;;;;5098614;28;20406;-82
2024/01/01 13:50:08;;;;;;;4.53;1.23;;;;;;;;;;5100348;28;20755;-82
2024/01/01 13:52:34;;;;;;;3.55;1.30;;;;;;;;;;5100615;28;20382;-82
2024/01/01 13:55:01;;;;;;;5.07;1.27;;;;;;;;;;5098924;28;21020;-82
2024/01/01 13:57:27;;;;;;;5.80;2.28;;;;;;;;;;5098159;28;20473;-82
2024/01/01 13:59:53;;;;;;;3.75;1.75;;;;;;;;;;5098662;28;20378;-82
2024/01/01 14:02:19;;;;;;;3.13;1.30;;;;;;;;;;5098457;28;20382;-83
2024/01/01 14:04:45;;;;;;;3.40;1.30;;;;;;;;;;5096825;28;20473;-82
2024/01/01 14:07:11;;;;;;;4.10;1.30;;;;;;;;;;5096390;28;20388;-82
2024/01/01 14:09:38;;;;;;;3.78;1.40;;;;;;;;;;5100273;28;20370;-82
2024/01/01 14:12:04;;;;;;;4.10;1.30;;;;;;;;;;5100338;28;20374;-82
2024/01/01 14:14:30;;;;;;;4.05;1.15;;;;;;;;;;5097945;28;20374;-83
2024/01/01 14:16:56;;;;;;;4.53;1.45;;;;;;;;;;5099103;28;20393;-82
2024/01/01 14:19:23;;;;;;;5.28;1.30;;;;;;;;;;5115758;28;20384;-82
2024/01/01 14:21:49;;;;;;;4.93;1.50;;;;;;;;;;5118801;28;20396;-82
2024/01/01 14:24:15;;;;;;;4.75;1.17;;;;;;;;;;5118662;28;20885;-82
2024/01/01 14:26:42;;;;;;;4.93;1.42;;;;;;;;;;5118608;28;20416;-82
2024/01/01 14:29:08;;;;;;;5.10;1.48;;;;;;;;;;5119244;28;20406;-82
2024/01/01 14:31:34;;;;;;;6.38;1.50;;;;;;;;;;5118750;28;20368;-82
2024/01/01 14:34:01;;;;;;;4.05;1.30;;;;;;;;;;5099966;28;20938;-82
2024/01/01 14:36:27;;;;;;;5.72;1.50;;;;;;;;;;5119218;28;20380;-82
2024/01/01 14:38:53;;;;;;;5.95;1.38;;;;;;;;;;5118863;28;20392;-83